createdAt,value
2022-11-24T00:01:26.302Z,71.46
2022-11-24T00:04:01.849Z,71.81
2022-11-24T00:06:30.578Z,71.52
2022-11-24T00:08:58.622Z,71.36
2022-11-24T00:11:28.638Z,70.59
2022-11-24T00:13:56.157Z,73.08
2022-11-24T00:16:28.817Z,72.87
2022-11-24T00:18:58.670Z,73.16
2022-11-24T00:21:27.334Z,72.12
2022-11-24T00:23:54.939Z,72.64
2022-11-24T00:26:27.018Z,72.80
2022-11-24T00:28:57.957Z,73.70
2022-11-24T00:31:28.468Z,74.35
2022-11-24T00:33:58.285Z,73.87
2022-11-24T00:36:26.944Z,73.29
2022-11-24T00:38:59.404Z,73.50
2022-11-24T00:41:27.303Z,73.73
2022-11-24T00:43:54.791Z,73.59
2022-11-24T00:46:23.459Z,74.00
2022-11-24T00:48:50.814Z,74.30
2022-11-24T00:51:19.819Z,74.42
2022-11-24T00:53:46.612Z,74.69
2022-11-24T00:56:13.951Z,75.18
2022-11-24T00:58:41.437Z,75.93
2022-11-24T01:01:14.283Z,75.25
2022-11-24T01:03:42.034Z,75.68
2022-11-24T01:06:12.051Z,75.60
2022-11-24T01:08:40.003Z,75.48
2022-11-24T01:11:18.598Z,76.17
2022-11-24T01:13:47.759Z,75.81
2022-11-24T01:16:22.872Z,76.15
2022-11-24T01:18:50.098Z,76.24
2022-11-24T01:21:17.666Z,76.78
2022-11-24T01:23:45.167Z,77.11
2022-11-24T01:26:16.559Z,76.75
2022-11-24T01:28:47.089Z,76.65
2022-11-24T01:31:15.794Z,77.02
2022-11-24T01:33:42.717Z,77.11
2022-11-24T01:36:09.560Z,76.89
2022-11-24T01:38:36.304Z,76.45
2022-11-24T01:41:12.211Z,77.07
2022-11-24T01:43:39.310Z,77.09
2022-11-24T01:46:31.532Z,78.05
2022-11-24T01:49:09.150Z,78.94
2022-11-24T01:52:00.229Z,78.94
2022-11-24T01:54:34.105Z,79.59
2022-11-24T01:57:24.069Z,81.31
2022-11-24T01:59:56.215Z,83.67
2022-11-24T02:02:25.021Z,84.58
2022-11-24T02:04:52.597Z,86.40
2022-11-24T02:07:19.770Z,87.64
2022-11-24T02:09:55.028Z,88.82
2022-11-24T02:12:24.401Z,89.73
2022-11-24T02:14:52.433Z,90.19
2022-11-24T02:17:19.300Z,90.78
2022-11-24T02:19:51.465Z,91.01
2022-11-24T02:23:10.600Z,91.34
2022-11-24T02:26:34.641Z,91.57
2022-11-24T02:29:02.433Z,90.39
2022-11-24T02:31:29.369Z,90.24
2022-11-24T02:33:56.816Z,89.95
2022-11-24T02:36:23.722Z,90.61
2022-11-24T02:38:50.700Z,90.31
2022-11-24T02:41:21.911Z,90.41
2022-11-24T02:44:01.861Z,90.71
2022-11-24T02:46:28.799Z,91.04
2022-11-24T02:48:55.858Z,91.32
2022-11-24T02:51:22.791Z,90.75
2022-11-24T02:53:49.759Z,89.72
2022-11-24T02:56:16.868Z,90.06
2022-11-24T02:58:43.696Z,89.27
2022-11-24T03:01:10.525Z,88.39
2022-11-24T03:03:37.844Z,88.32
2022-11-24T03:06:04.966Z,89.31
2022-11-24T03:08:31.894Z,89.52
2022-11-24T03:10:58.734Z,89.09
2022-11-24T03:13:25.732Z,90.60
2022-11-24T03:15:52.664Z,91.09
2022-11-24T03:18:19.580Z,91.08
2022-11-24T03:20:46.557Z,90.84
2022-11-24T03:23:13.483Z,90.03
2022-11-24T03:25:40.295Z,89.78
2022-11-24T03:28:07.278Z,88.98
2022-11-24T03:30:34.049Z,87.76
2022-11-24T03:33:00.918Z,84.95
2022-11-24T03:35:28.103Z,83.80
2022-11-24T03:37:54.918Z,84.22
2022-11-24T03:40:21.906Z,83.68
2022-11-24T03:42:48.755Z,83.45
2022-11-24T03:45:44.965Z,83.91
2022-11-24T03:48:02.965Z,83.32
2022-11-24T03:50:29.915Z,81.92
2022-11-24T03:52:56.761Z,81.72
2022-11-24T03:55:23.490Z,82.87
2022-11-24T03:57:50.393Z,81.10
2022-11-24T04:00:17.850Z,80.76
2022-11-24T04:02:44.784Z,80.70
2022-11-24T04:05:11.789Z,81.99
2022-11-24T04:07:38.794Z,81.64
2022-11-24T04:10:06.793Z,80.87
2022-11-24T04:12:33.864Z,80.30
2022-11-24T04:15:00.683Z,78.84
2022-11-24T04:17:28.658Z,79.44
2022-11-24T04:19:55.630Z,79.50
2022-11-24T04:22:22.546Z,78.44
2022-11-24T04:24:49.567Z,77.13
2022-11-24T04:27:16.585Z,77.07
2022-11-24T04:29:43.606Z,77.21
2022-11-24T04:32:10.417Z,77.95
2022-11-24T04:34:37.701Z,76.91
2022-11-24T04:37:04.675Z,76.82
2022-11-24T04:39:31.656Z,76.27
2022-11-24T04:41:58.567Z,76.35
2022-11-24T04:44:25.515Z,76.82
2022-11-24T04:46:52.602Z,79.18
2022-11-24T04:49:19.942Z,79.76
2022-11-24T04:51:47.152Z,78.62
2022-11-24T04:54:14.805Z,77.05
2022-11-24T04:56:42.571Z,77.43
2022-11-24T04:59:14.009Z,76.34
2022-11-24T05:01:45.418Z,76.47
2022-11-24T05:04:14.291Z,74.24
2022-11-24T05:06:41.337Z,74.04
2022-11-24T05:09:08.909Z,73.76
2022-11-24T05:11:35.802Z,73.85
2022-11-24T05:14:02.666Z,75.25
2022-11-24T05:16:29.562Z,78.16
2022-11-24T05:18:56.455Z,79.70
2022-11-24T05:21:23.381Z,81.48
2022-11-24T05:23:50.243Z,82.66
2022-11-24T05:26:17.296Z,83.63
2022-11-24T05:28:44.154Z,82.39
2022-11-24T05:31:11.223Z,83.83
2022-11-24T05:33:38.318Z,85.23
2022-11-24T05:36:07.034Z,85.12
2022-11-24T05:38:34.456Z,83.75
2022-11-24T05:41:02.963Z,82.85
2022-11-24T05:43:29.912Z,82.04
2022-11-24T05:46:01.046Z,80.98
2022-11-24T05:48:28.291Z,79.96
2022-11-24T05:50:57.098Z,82.04
2022-11-24T05:53:24.626Z,82.49
2022-11-24T05:55:51.505Z,81.62
2022-11-24T05:58:18.471Z,81.66
2022-11-24T06:00:45.371Z,83.06
2022-11-24T06:03:12.521Z,84.49
2022-11-24T06:05:39.711Z,83.23
2022-11-24T06:08:06.666Z,81.61
2022-11-24T06:10:33.591Z,81.05
2022-11-24T06:13:05.407Z,79.61
2022-11-24T06:15:33.115Z,78.13
2022-11-24T06:18:00.044Z,79.04
2022-11-24T06:20:32.307Z,80.56
2022-11-24T06:23:00.204Z,81.51
2022-11-24T06:25:27.873Z,81.86
2022-11-24T06:27:55.039Z,80.30
2022-11-24T06:30:21.936Z,80.21
2022-11-24T06:32:50.055Z,80.20
2022-11-24T06:35:17.531Z,77.99
2022-11-24T06:37:44.440Z,77.85
2022-11-24T06:40:11.486Z,77.79
2022-11-24T06:42:38.567Z,77.01
2022-11-24T06:45:09.027Z,74.78
2022-11-24T06:47:36.319Z,75.36
2022-11-24T06:50:03.294Z,74.62
2022-11-24T06:52:30.080Z,75.75
2022-11-24T06:54:57.048Z,73.94
2022-11-24T06:57:24.076Z,74.54
2022-11-24T06:59:51.276Z,72.68
2022-11-24T07:02:18.104Z,74.01
2022-11-24T07:04:45.019Z,73.55
2022-11-24T07:07:11.828Z,73.23
2022-11-24T07:09:38.830Z,74.02
2022-11-24T07:12:06.018Z,73.75
2022-11-24T07:14:33.314Z,72.98
2022-11-24T07:17:00.596Z,70.76
2022-11-24T07:19:27.547Z,69.72
2022-11-24T07:21:54.463Z,71.03
2022-11-24T07:24:21.443Z,71.00
2022-11-24T07:26:48.442Z,71.55
2022-11-24T07:29:15.321Z,74.01
2022-11-24T07:31:42.390Z,74.32
2022-11-24T07:34:09.545Z,74.44
2022-11-24T07:36:36.449Z,76.46
2022-11-24T07:39:05.974Z,75.64
2022-11-24T07:41:33.063Z,76.04
2022-11-24T07:44:00.082Z,76.03
2022-11-24T07:46:27.048Z,76.37
2022-11-24T07:48:53.941Z,76.26
2022-11-24T07:51:20.868Z,75.69
2022-11-24T07:53:47.769Z,74.80
2022-11-24T07:56:14.705Z,76.83
2022-11-24T07:58:41.718Z,76.83
2022-11-24T08:01:14.479Z,78.43
2022-11-24T08:03:42.619Z,77.61
2022-11-24T08:06:29.059Z,77.25
2022-11-24T08:08:58.075Z,76.99
2022-11-24T08:11:25.326Z,77.00
2022-11-24T08:13:52.464Z,77.45
2022-11-24T08:16:20.941Z,77.12
2022-11-24T08:18:52.732Z,76.79
2022-11-24T08:21:20.040Z,76.29
2022-11-24T08:23:47.340Z,74.99
2022-11-24T08:26:16.604Z,75.60
2022-11-24T08:28:44.646Z,74.94
2022-11-24T08:31:14.220Z,72.19
2022-11-24T08:33:41.881Z,73.07
2022-11-24T08:36:12.087Z,72.73
2022-11-24T08:38:39.655Z,71.68
2022-11-24T08:41:12.232Z,71.25
2022-11-24T08:43:39.339Z,71.44
2022-11-24T08:46:09.237Z,71.61
2022-11-24T08:48:36.240Z,71.29
2022-11-24T08:51:08.796Z,72.06
2022-11-24T08:53:35.550Z,72.32
2022-11-24T08:56:03.626Z,72.08
2022-11-24T08:58:30.830Z,70.07
2022-11-24T09:01:05.333Z,70.30
2022-11-24T09:03:32.264Z,70.70
2022-11-24T09:05:59.230Z,73.22
2022-11-24T09:08:26.100Z,72.36
2022-11-24T09:10:53.028Z,73.03
2022-11-24T09:13:19.960Z,72.40
2022-11-24T09:15:46.733Z,72.98
2022-11-24T09:18:13.719Z,72.87
2022-11-24T09:20:40.526Z,73.12
2022-11-24T09:23:07.437Z,74.65
2022-11-24T09:25:37.519Z,73.71
2022-11-24T09:28:04.483Z,74.97
2022-11-24T09:30:31.370Z,74.27
2022-11-24T09:32:58.499Z,76.65
2022-11-24T09:35:25.524Z,76.23
2022-11-24T09:37:52.462Z,74.59
2022-11-24T09:40:19.505Z,73.94
2022-11-24T09:43:13.606Z,74.02
2022-11-24T09:46:05.908Z,72.95
2022-11-24T09:48:46.614Z,72.90
2022-11-24T09:51:15.397Z,72.33
2022-11-24T09:54:06.213Z,71.51
2022-11-24T09:56:35.660Z,73.70
2022-11-24T09:59:07.525Z,74.71
2022-11-24T10:01:36.674Z,75.12
2022-11-24T10:04:06.593Z,73.54
2022-11-24T10:06:44.484Z,71.64
2022-11-24T10:09:32.934Z,73.21
2022-11-24T10:12:27.830Z,71.94
2022-11-24T10:15:33.004Z,73.05
2022-11-24T10:18:21.233Z,72.29
2022-11-24T10:21:23.097Z,73.39
2022-11-24T10:24:08.715Z,72.04
2022-11-24T10:26:39.370Z,71.61
2022-11-24T10:29:21.172Z,71.85
2022-11-24T10:31:53.884Z,72.26
2022-11-24T10:34:30.134Z,71.02
2022-11-24T10:37:12.321Z,70.87
2022-11-24T10:39:59.649Z,69.88
2022-11-24T10:42:28.845Z,70.11
2022-11-24T10:45:15.764Z,71.81
2022-11-24T10:47:44.366Z,70.79
2022-11-24T10:50:28.186Z,69.46
2022-11-24T10:53:04.555Z,70.46
2022-11-24T10:55:56.259Z,68.76
2022-11-24T10:58:37.655Z,69.02
2022-11-24T11:01:14.059Z,68.40
2022-11-24T11:04:01.264Z,68.61
2022-11-24T11:06:29.923Z,69.18
2022-11-24T11:09:09.086Z,69.23
2022-11-24T11:11:37.675Z,69.63
2022-11-24T11:14:07.385Z,69.58
2022-11-24T11:16:54.410Z,71.54
2022-11-24T11:19:49.101Z,72.48
2022-11-24T11:22:31.711Z,72.96
2022-11-24T11:25:20.874Z,73.01
2022-11-24T11:27:48.326Z,72.91
2022-11-24T11:36:11.609Z,73.87
2022-11-24T11:38:40.095Z,75.24
2022-11-24T11:41:18.282Z,77.18
2022-11-24T11:43:47.887Z,77.05
2022-11-24T11:46:15.757Z,75.96
2022-11-24T11:48:45.413Z,75.14
2022-11-24T11:51:27.547Z,76.05
2022-11-24T11:54:16.137Z,76.58
2022-11-24T11:56:45.875Z,77.04
2022-11-24T11:59:24.597Z,76.52
2022-11-24T12:02:13.116Z,76.62
2022-11-24T12:05:05.505Z,78.22
2022-11-24T12:07:38.729Z,76.82
2022-11-24T12:10:20.428Z,76.04
2022-11-24T12:13:03.813Z,76.27
2022-11-24T12:15:52.829Z,76.24
2022-11-24T12:18:56.680Z,75.93
2022-11-24T12:21:26.207Z,76.81
2022-11-24T12:24:02.770Z,77.49
2022-11-24T12:26:58.566Z,77.25
2022-11-24T12:29:52.623Z,77.76
2022-11-24T12:32:29.939Z,77.82
2022-11-24T12:35:15.845Z,78.63
2022-11-24T12:38:27.087Z,78.19
2022-11-24T12:44:04.074Z,78.00
2022-11-24T12:46:50.009Z,77.35
2022-11-24T12:49:32.943Z,76.15
2022-11-24T12:52:32.134Z,75.92
2022-11-24T12:55:00.108Z,76.88
2022-11-24T12:58:11.717Z,76.45
2022-11-24T13:00:44.161Z,76.31
2022-11-24T13:03:22.557Z,76.62
2022-11-24T13:06:30.043Z,77.19
2022-11-24T13:08:57.010Z,77.85
2022-11-24T13:11:23.978Z,77.80
2022-11-24T13:14:06.066Z,78.07
2022-11-24T13:16:37.023Z,78.12
2022-11-24T13:19:17.343Z,78.40
2022-11-24T13:21:44.168Z,76.31
2022-11-24T13:24:17.571Z,77.09
2022-11-24T13:26:47.825Z,76.93
2022-11-24T13:29:38.797Z,76.54
2022-11-24T13:32:05.544Z,76.19
2022-11-24T13:34:41.493Z,74.83
2022-11-24T13:37:29.044Z,73.04
2022-11-24T13:40:14.433Z,70.99
2022-11-24T13:43:10.731Z,69.97
2022-11-24T13:45:41.028Z,71.00
2022-11-24T13:48:20.790Z,68.90
2022-11-24T13:50:51.552Z,69.47
2022-11-24T13:53:30.773Z,69.36
2022-11-24T13:56:21.760Z,69.10
2022-11-24T13:58:52.454Z,67.84
2022-11-24T14:01:20.587Z,68.63
2022-11-24T14:06:53.507Z,68.88
2022-11-24T14:09:34.062Z,68.97
2022-11-24T14:12:12.200Z,69.51
2022-11-24T14:14:39.449Z,69.72
2022-11-24T14:17:21.836Z,70.09
2022-11-24T14:19:51.530Z,70.19
2022-11-24T14:22:23.178Z,71.03
2022-11-24T14:24:58.701Z,71.64
2022-11-24T14:27:36.067Z,71.50
2022-11-24T14:30:17.761Z,70.63
2022-11-24T14:33:13.830Z,71.95
2022-11-24T14:35:52.428Z,72.13
2022-11-24T14:38:19.371Z,72.17
2022-11-24T14:40:52.622Z,72.42
2022-11-24T14:43:32.810Z,72.01
2022-11-24T14:46:10.079Z,72.16
2022-11-24T14:48:47.833Z,72.12
2022-11-24T14:51:17.201Z,72.54
2022-11-24T14:53:53.370Z,73.08
2022-11-24T14:56:27.328Z,73.33
2022-11-24T14:58:56.275Z,73.38
2022-11-24T15:01:33.047Z,74.24
2022-11-24T15:07:25.315Z,75.27
2022-11-24T15:09:57.344Z,75.16
2022-11-24T15:12:31.980Z,74.83
2022-11-24T15:15:05.275Z,74.76
2022-11-24T15:17:32.955Z,74.49
2022-11-24T15:20:10.658Z,75.08
2022-11-24T15:22:37.716Z,74.96
2022-11-24T15:25:28.366Z,75.69
2022-11-24T15:27:58.074Z,76.42
2022-11-24T15:30:25.130Z,76.41
2022-11-24T15:32:53.854Z,77.46
2022-11-24T15:35:21.507Z,77.60
2022-11-24T15:37:48.815Z,77.77
2022-11-24T15:40:15.921Z,77.34
2022-11-24T15:42:46.707Z,78.37
2022-11-24T15:45:13.803Z,78.31
2022-11-24T15:47:40.772Z,77.97
2022-11-24T15:50:08.277Z,79.99
2022-11-24T15:52:35.410Z,81.95
2022-11-24T15:55:05.534Z,83.47
2022-11-24T15:57:35.517Z,84.50
2022-11-24T16:00:02.759Z,85.39
2022-11-24T16:02:29.877Z,84.91
2022-11-24T16:04:56.748Z,85.10
2022-11-24T16:07:23.757Z,86.27
2022-11-24T16:09:50.775Z,85.54
2022-11-24T16:12:17.677Z,86.46
2022-11-24T16:14:44.544Z,84.94
2022-11-24T16:17:11.480Z,84.63
2022-11-24T16:19:41.761Z,85.24
2022-11-24T16:22:09.111Z,84.32
2022-11-24T16:24:36.389Z,83.52
2022-11-24T16:27:03.470Z,84.15
2022-11-24T16:29:32.899Z,85.11
2022-11-24T16:32:03.978Z,85.46
2022-11-24T16:34:30.932Z,85.16
2022-11-24T16:36:57.773Z,85.20
2022-11-24T16:39:24.528Z,83.94
2022-11-24T16:41:51.473Z,83.15
2022-11-24T16:44:18.297Z,83.73
2022-11-24T16:46:45.140Z,83.92
2022-11-24T16:49:12.114Z,83.02
2022-11-24T16:51:38.916Z,82.04
2022-11-24T16:54:05.864Z,82.77
2022-11-24T16:56:32.747Z,82.18
2022-11-24T16:58:59.565Z,82.72
2022-11-24T17:01:26.445Z,82.47
2022-11-24T17:03:54.068Z,81.70
2022-11-24T17:06:21.186Z,80.93
2022-11-24T17:08:48.396Z,80.06
2022-11-24T17:11:23.518Z,80.12
2022-11-24T17:13:54.354Z,80.03
2022-11-24T17:16:23.283Z,82.45
2022-11-24T17:18:50.881Z,83.11
2022-11-24T17:21:23.643Z,82.90
2022-11-24T17:23:55.476Z,82.47
2022-11-24T17:26:22.459Z,81.92
2022-11-24T17:28:49.412Z,81.77
2022-11-24T17:31:23.899Z,81.61
2022-11-24T17:33:53.026Z,83.21
2022-11-24T17:36:20.379Z,82.67
2022-11-24T17:38:47.703Z,82.61
2022-11-24T17:41:14.549Z,81.87
2022-11-24T17:43:41.796Z,82.57
2022-11-24T17:46:10.575Z,82.47
2022-11-24T17:48:38.553Z,82.01
2022-11-24T17:51:13.475Z,82.04
2022-11-24T17:53:42.284Z,82.62
2022-11-24T17:56:12.993Z,82.88
2022-11-24T17:58:42.910Z,84.08
2022-11-24T18:01:11.499Z,84.82
2022-11-24T18:03:42.307Z,86.90
2022-11-24T18:06:11.787Z,87.96
2022-11-24T18:08:41.275Z,87.32
2022-11-24T18:11:17.396Z,86.80
2022-11-24T18:16:33.440Z,85.98
2022-11-24T18:19:10.669Z,85.04
2022-11-24T18:21:42.529Z,84.64
2022-11-24T18:24:10.913Z,86.64
2022-11-24T18:26:40.734Z,87.27
2022-11-24T18:29:08.092Z,85.62
2022-11-24T18:31:35.824Z,84.58
2022-11-24T18:34:04.983Z,84.55
2022-11-24T18:36:33.112Z,83.59
2022-11-24T18:39:09.634Z,82.81
2022-11-24T18:41:36.874Z,82.36
2022-11-24T18:44:04.628Z,81.35
2022-11-24T18:46:31.692Z,81.19
2022-11-24T18:48:59.646Z,80.80
2022-11-24T18:51:26.468Z,79.86
2022-11-24T18:53:54.040Z,79.69
2022-11-24T18:56:21.132Z,79.97
2022-11-24T18:58:47.933Z,79.32
2022-11-24T19:01:17.309Z,78.67
2022-11-24T19:03:52.401Z,78.14
2022-11-24T19:06:22.579Z,78.41
2022-11-24T19:08:52.518Z,78.35
2022-11-24T19:11:27.653Z,77.98
2022-11-24T19:13:55.300Z,77.89
2022-11-24T19:16:23.139Z,77.06
2022-11-24T19:18:54.377Z,80.20
2022-11-24T19:21:22.106Z,83.30
2022-11-24T19:23:51.817Z,84.93
2022-11-24T19:26:22.135Z,85.82
2022-11-24T19:28:52.406Z,86.64
2022-11-24T19:31:21.270Z,86.42
2022-11-24T19:33:48.268Z,86.36
2022-11-24T19:36:18.314Z,86.26
2022-11-24T19:38:53.863Z,85.06
2022-11-24T19:41:22.422Z,86.09
2022-11-24T19:43:49.789Z,85.06
2022-11-24T19:46:18.646Z,84.59
2022-11-24T19:48:51.079Z,83.31
2022-11-24T19:51:20.759Z,83.62
2022-11-24T19:53:48.506Z,83.34
2022-11-24T19:56:23.173Z,82.74
2022-11-24T19:58:51.284Z,82.34
2022-11-24T20:01:29.236Z,80.90
2022-11-24T20:03:59.198Z,80.56
2022-11-24T20:06:28.968Z,80.31
2022-11-24T20:08:58.025Z,81.20
2022-11-24T20:11:25.063Z,81.57
2022-11-24T20:13:51.927Z,82.63
2022-11-24T20:16:24.300Z,85.17
2022-11-24T20:18:51.150Z,86.20
2022-11-24T20:21:22.683Z,87.41
2022-11-24T20:24:01.449Z,87.36
2022-11-24T20:26:38.297Z,88.89
2022-11-24T20:29:05.883Z,89.31
2022-11-24T20:31:35.947Z,88.88
2022-11-24T20:34:04.842Z,88.41
2022-11-24T20:36:33.582Z,87.33
2022-11-24T20:39:02.450Z,87.01
2022-11-24T20:41:32.510Z,86.39
2022-11-24T20:44:02.025Z,87.39
2022-11-24T20:46:32.410Z,87.38
2022-11-24T20:49:00.175Z,89.48
2022-11-24T20:51:32.146Z,90.64
2022-11-24T20:54:01.342Z,91.35
2022-11-24T20:56:31.012Z,92.25
2022-11-24T20:58:58.520Z,92.91
2022-11-24T21:01:36.844Z,93.48
2022-11-24T21:04:06.164Z,94.59
2022-11-24T21:06:33.433Z,94.66
2022-11-24T21:09:04.033Z,94.71
2022-11-24T21:11:32.231Z,93.74
2022-11-24T21:13:59.705Z,92.70
2022-11-24T21:16:28.299Z,91.50
2022-11-24T21:18:58.784Z,91.07
2022-11-24T21:21:28.220Z,89.61
2022-11-24T21:23:55.079Z,88.54
2022-11-24T21:26:22.113Z,88.24
2022-11-24T21:28:49.009Z,87.63
2022-11-24T21:31:18.707Z,87.17
2022-11-24T21:33:51.214Z,87.89
2022-11-24T21:36:26.236Z,89.76
2022-11-24T21:38:55.660Z,90.77
2022-11-24T21:41:24.122Z,92.05
2022-11-24T21:43:52.743Z,93.02
2022-11-24T21:46:19.764Z,93.35
2022-11-24T21:48:46.838Z,94.60
2022-11-24T21:51:16.384Z,95.07
2022-11-24T21:53:46.978Z,95.38
2022-11-24T21:56:19.133Z,95.53
2022-11-24T21:58:56.930Z,95.52
2022-11-24T22:01:28.125Z,95.94
2022-11-24T22:03:56.368Z,95.54
2022-11-24T22:06:23.922Z,95.18
2022-11-24T22:08:50.900Z,94.96
2022-11-24T22:11:21.279Z,94.72
2022-11-24T22:13:49.128Z,94.29
2022-11-24T22:16:21.191Z,93.95
2022-11-24T22:18:49.622Z,93.69
2022-11-24T22:21:19.128Z,93.22
2022-11-24T22:23:45.950Z,93.04
2022-11-24T22:26:18.222Z,92.38
2022-11-24T22:28:45.658Z,91.72
2022-11-24T22:31:24.317Z,91.99
2022-11-24T22:33:52.069Z,91.94
2022-11-24T22:36:20.620Z,92.15
2022-11-24T22:38:48.291Z,92.29
2022-11-24T22:41:19.152Z,92.29
2022-11-24T22:43:46.823Z,92.15
2022-11-24T22:46:16.565Z,92.67
2022-11-24T22:48:45.203Z,93.15
2022-11-24T22:51:18.798Z,92.62
2022-11-24T22:53:50.497Z,92.85
2022-11-24T22:56:17.603Z,93.52
2022-11-24T22:58:44.579Z,94.04
2022-11-24T23:01:20.174Z,92.69
2022-11-24T23:03:47.616Z,92.35
2022-11-24T23:06:19.847Z,90.83
2022-11-24T23:08:47.394Z,89.38
2022-11-24T23:11:20.088Z,88.59
2022-11-24T23:14:03.423Z,87.71
2022-11-24T23:16:30.522Z,86.41
2022-11-24T23:18:57.840Z,86.16
2022-11-24T23:21:27.952Z,85.36
2022-11-24T23:23:55.920Z,85.10
2022-11-24T23:26:31.392Z,84.93
2022-11-24T23:28:58.542Z,83.99
2022-11-24T23:31:27.576Z,83.80
2022-11-24T23:33:59.407Z,83.68
2022-11-24T23:36:28.293Z,83.24
2022-11-24T23:38:55.251Z,83.36
2022-11-24T23:41:24.729Z,82.52
2022-11-24T23:43:52.259Z,82.70
2022-11-24T23:46:21.887Z,83.58
2022-11-24T23:48:50.143Z,84.35
2022-11-24T23:51:22.729Z,85.73
2022-11-24T23:53:50.348Z,88.36
2022-11-24T23:56:20.191Z,90.05
2022-11-24T23:58:47.514Z,91.13
